Time;durP1;ratioP1;P1;durP2;ratioP2;P2;SDS_P1;SDS_P2;PMS_P1;PMS_P2;Temp;Humidity;BMP_temperature;BMP_pressure;BME280_temperature;BME280_humidity;BME280_pressure;Samples;Min_cycle;Max_cycle;Signal;HPM_P1;HPM_P2
2022/05/31 00:01:51;;;;;;;11.73;6.43;;;;;;;-145.76;100.00;65039.31;4942902;28;21246;-71
2022/05/31 00:04:18;;;;;;;13.55;7.47;;;;;;;-145.76;100.00;65039.31;4927088;28;20601;-72
2022/05/31 00:06:44;;;;;;;9.57;6.80;;;;;;;-145.76;100.00;65039.31;4941640;28;20026;-71
2022/05/31 00:09:10;;;;;;;14.32;7.22;;;;;;;-145.76;100.00;65039.31;4930307;28;20111;-71
2022/05/31 00:11:40;;;;;;;11.75;6.82;;;;;;;-145.76;100.00;65039.31;4961872;28;20034;-71
2022/05/31 00:14:06;;;;;;;11.25;7.28;;;;;;;-145.76;100.00;65039.31;4938873;28;20034;-71
2022/05/31 00:16:32;;;;;;;10.82;7.10;;;;;;;-145.76;100.00;65039.31;4932754;28;20537;-71
2022/05/31 00:18:57;;;;;;;15.18;9.40;;;;;;;-145.76;100.00;65039.31;4945068;28;20038;-71
2022/05/31 00:21:32;;;;;;;11.55;8.43;;;;;;;-145.76;100.00;65039.31;4931466;28;20081;-71
2022/05/31 00:23:57;;;;;;;12.13;7.22;;;;;;;-145.76;100.00;65039.31;4939617;28;20153;-71
2022/05/31 00:26:23;;;;;;;9.25;7.28;;;;;;;-145.76;100.00;65039.31;4928756;28;20100;-71
2022/05/31 00:28:48;;;;;;;13.35;8.05;;;;;;;-145.76;100.00;65039.31;4926079;28;20112;-71
2022/05/31 00:31:14;;;;;;;12.10;8.32;;;;;;;-145.76;100.00;65039.31;4930868;28;20196;-71
2022/05/31 00:33:39;;;;;;;11.20;8.35;;;;;;;-145.76;100.00;65039.31;4945821;28;20042;-71
2022/05/31 00:36:05;;;;;;;9.63;8.10;;;;;;;-145.76;100.00;65039.31;4947250;28;20030;-71
2022/05/31 00:38:30;;;;;;;11.85;8.10;;;;;;;-145.76;100.00;65039.31;4931661;28;20046;-70
2022/05/31 00:41:23;;;;;;;15.07;8.65;;;;;;;-145.76;100.00;65039.31;4945255;28;20135;-71
2022/05/31 00:43:41;;;;;;;15.43;9.38;;;;;;;-145.76;100.00;65039.31;4925645;28;20059;-72
2022/05/31 00:46:06;;;;;;;12.45;8.05;;;;;;;-145.76;100.00;65039.31;4947288;28;21156;-72
2022/05/31 00:48:35;;;;;;;13.68;8.70;;;;;;;-145.76;100.00;65039.31;4912902;28;20066;-72
2022/05/31 00:51:06;;;;;;;12.55;8.77;;;;;;;-145.76;100.00;65039.31;4945107;28;20153;-72
2022/05/31 00:53:47;;;;;;;16.60;8.63;;;;;;;-145.76;100.00;65039.31;4932565;28;20510;-72
2022/05/31 00:56:16;;;;;;;12.60;9.52;;;;;;;-145.76;100.00;65039.31;4942674;28;20514;-71
2022/05/31 00:58:46;;;;;;;16.40;10.13;;;;;;;-145.76;100.00;65039.31;4910513;28;20133;-72
2022/05/31 01:01:15;;;;;;;14.90;9.63;;;;;;;-145.76;100.00;65039.31;4956729;28;20038;-72
2022/05/31 01:03:41;;;;;;;11.90;9.25;;;;;;;-145.76;100.00;65039.31;4926804;28;20046;-73
2022/05/31 01:06:10;;;;;;;14.10;10.50;;;;;;;-145.76;100.00;65039.31;4941694;28;20038;-72
2022/05/31 01:08:36;;;;;;;15.75;9.68;;;;;;;-145.76;100.00;65039.31;4942780;28;20041;-72
2022/05/31 01:11:02;;;;;;;14.02;10.05;;;;;;;-145.76;100.00;65039.31;4931690;28;20040;-71
2022/05/31 01:13:28;;;;;;;16.60;11.93;;;;;;;-145.76;100.00;65039.31;4944714;28;20943;-71
2022/05/31 01:16:06;;;;;;;16.17;10.68;;;;;;;-145.76;100.00;65039.31;4933745;28;21224;-72
2022/05/31 01:18:32;;;;;;;14.90;10.80;;;;;;;-145.76;100.00;65039.31;4943267;28;20057;-70
2022/05/31 01:20:59;;;;;;;15.20;11.57;;;;;;;-145.76;100.00;65039.31;4932970;28;20183;-71
2022/05/31 01:23:27;;;;;;;17.08;11.48;;;;;;;-145.76;100.00;65039.31;4951318;28;20030;-70
2022/05/31 01:25:52;;;;;;;17.13;10.68;;;;;;;-145.76;100.00;65039.31;4943540;28;20052;-70
2022/05/31 01:28:36;;;;;;;17.05;11.15;;;;;;;-145.76;100.00;65039.31;4933999;28;23543;-70
2022/05/31 01:31:15;;;;;;;16.70;10.35;;;;;;;-145.76;100.00;65039.31;4949484;28;20053;-71
2022/05/31 01:33:45;;;;;;;18.58;11.18;;;;;;;-145.76;100.00;65039.31;4942686;28;20073;-71
2022/05/31 01:36:18;;;;;;;14.15;11.32;;;;;;;-145.76;100.00;65039.31;4929773;28;20034;-71
2022/05/31 01:38:55;;;;;;;15.90;11.10;;;;;;;-145.76;100.00;65039.31;4889394;28;20053;-73
2022/05/31 01:41:32;;;;;;;14.07;9.88;;;;;;;-145.76;100.00;65039.31;4924719;28;20045;-71
2022/05/31 01:43:59;;;;;;;19.58;11.55;;;;;;;-145.76;100.00;65039.31;4910561;28;20164;-72
2022/05/31 01:46:34;;;;;;;19.77;11.95;;;;;;;-145.76;100.00;65039.31;4945905;28;20045;-71
2022/05/31 01:49:02;;;;;;;16.95;10.82;;;;;;;-145.76;100.00;65039.31;4927017;28;21097;-71
2022/05/31 01:51:28;;;;;;;18.63;11.05;;;;;;;-145.76;100.00;65039.31;4943972;28;20026;-72
2022/05/31 01:53:54;;;;;;;15.73;10.18;;;;;;;-145.76;100.00;65039.31;4931307;28;20038;-71
2022/05/31 01:56:21;;;;;;;16.27;10.50;;;;;;;-145.76;100.00;65039.31;4940956;28;20459;-72
2022/05/31 01:58:48;;;;;;;16.15;10.45;;;;;;;-145.76;100.00;65039.31;4942056;28;20096;-72
2022/05/31 02:01:14;;;;;;;16.50;10.90;;;;;;;-145.76;100.00;65039.31;4931357;28;20069;-72
2022/05/31 02:03:40;;;;;;;14.98;10.50;;;;;;;-145.76;100.00;65039.31;4944655;28;20190;-72
2022/05/31 02:06:26;;;;;;;22.92;11.68;;;;;;;-145.76;100.00;65039.31;4923539;28;20183;-71
2022/05/31 02:08:52;;;;;;;14.38;10.43;;;;;;;-145.76;100.00;65039.31;4924698;28;23732;-72
2022/05/31 02:11:18;;;;;;;18.23;10.80;;;;;;;-145.76;100.00;65039.31;4928888;28;20054;-72
2022/05/31 02:13:45;;;;;;;18.00;11.30;;;;;;;-145.76;100.00;65039.31;4944269;28;20076;-72
2022/05/31 02:16:11;;;;;;;19.20;12.70;;;;;;;-145.76;100.00;65039.31;4929244;28;20044;-71
2022/05/31 02:21:21;;;;;;;20.17;13.02;;;;;;;-145.76;100.00;65039.31;4939906;28;20048;-72
2022/05/31 02:23:46;;;;;;;19.75;12.82;;;;;;;-145.76;100.00;65039.31;4933784;28;20042;-72
2022/05/31 02:26:12;;;;;;;23.73;14.07;;;;;;;-145.76;100.00;65039.31;4943279;28;20494;-72
2022/05/31 02:28:37;;;;;;;23.17;14.27;;;;;;;-145.76;100.00;65039.31;4924748;28;20064;-72
2022/05/31 02:31:03;;;;;;;19.13;13.15;;;;;;;-145.76;100.00;65039.31;4942344;28;20125;-72
2022/05/31 02:33:28;;;;;;;22.55;13.40;;;;;;;-145.76;100.00;65039.31;4926794;28;20037;-72
2022/05/31 02:35:53;;;;;;;20.40;12.88;;;;;;;-145.76;100.00;65039.31;4925811;28;20055;-72
2022/05/31 02:38:19;;;;;;;17.70;12.20;;;;;;;-145.76;100.00;65039.31;4924285;28;20274;-72
2022/05/31 02:40:44;;;;;;;16.48;11.88;;;;;;;-145.76;100.00;65039.31;4919943;28;20734;-72
2022/05/31 02:43:10;;;;;;;22.38;13.98;;;;;;;-145.76;100.00;65039.31;4943453;28;20048;-72
2022/05/31 02:45:35;;;;;;;22.63;13.30;;;;;;;-145.76;100.00;65039.31;4925954;28;20053;-72
2022/05/31 02:48:01;;;;;;;25.38;15.23;;;;;;;-145.76;100.00;65039.31;4943930;28;20038;-72
2022/05/31 02:50:26;;;;;;;22.25;14.32;;;;;;;-145.76;100.00;65039.31;4924812;28;20077;-72
2022/05/31 02:52:52;;;;;;;24.73;15.07;;;;;;;-145.76;100.00;65039.31;4943988;28;20038;-72
2022/05/31 02:55:18;;;;;;;21.67;14.48;;;;;;;-145.76;100.00;65039.31;4924445;28;20168;-72
2022/05/31 02:57:43;;;;;;;23.23;14.50;;;;;;;-145.76;100.00;65039.31;4943063;28;20678;-72
2022/05/31 03:00:10;;;;;;;20.67;13.93;;;;;;;-145.76;100.00;65039.31;4928745;28;20046;-73
2022/05/31 03:02:37;;;;;;;20.73;14.40;;;;;;;-145.76;100.00;65039.31;4954097;28;20081;-72
2022/05/31 03:05:03;;;;;;;20.75;13.25;;;;;;;-145.76;100.00;65039.31;4943135;28;20034;-72
2022/05/31 03:07:28;;;;;;;25.00;13.90;;;;;;;-145.76;100.00;65039.31;4926662;28;20117;-72
2022/05/31 03:09:54;;;;;;;24.95;16.15;;;;;;;-145.76;100.00;65039.31;4944004;28;20208;-72
2022/05/31 03:12:20;;;;;;;25.45;16.40;;;;;;;-145.76;100.00;65039.31;4928047;28;21165;-72
2022/05/31 03:14:49;;;;;;;23.25;14.88;;;;;;;-145.76;100.00;65039.31;4938382;28;20038;-73
2022/05/31 03:17:31;;;;;;;24.65;15.55;;;;;;;-145.76;100.00;65039.31;4925256;28;20644;-71
2022/05/31 03:20:08;;;;;;;27.25;16.58;;;;;;;-145.76;100.00;65039.31;4945860;28;20477;-71
2022/05/31 03:22:58;;;;;;;29.63;17.52;;;;;;;-145.76;100.00;65039.31;4935909;28;20113;-72
2022/05/31 03:25:26;;;;;;;30.33;17.30;;;;;;;-145.76;100.00;65039.31;4944435;28;24686;-72
2022/05/31 03:27:52;;;;;;;29.38;18.45;;;;;;;-145.76;100.00;65039.31;4928360;28;20133;-72
2022/05/31 03:30:18;;;;;;;29.35;18.73;;;;;;;-145.76;100.00;65039.31;4917279;28;20038;-72
2022/05/31 03:32:44;;;;;;;26.85;18.50;;;;;;;-145.76;100.00;65039.31;4943312;28;20208;-73
2022/05/31 03:35:10;;;;;;;30.77;20.25;;;;;;;-145.76;100.00;65039.31;4906749;28;20481;-72
2022/05/31 03:37:35;;;;;;;35.58;20.65;;;;;;;-145.76;100.00;65039.31;4942884;28;20038;-72
2022/05/31 03:40:01;;;;;;;37.38;21.20;;;;;;;-145.76;100.00;65039.31;4884351;28;20066;-73
2022/05/31 03:42:26;;;;;;;32.25;21.13;;;;;;;-145.76;100.00;65039.31;4941834;28;20042;-73
2022/05/31 03:44:53;;;;;;;29.27;19.80;;;;;;;-145.76;100.00;65039.31;4928070;28;20046;-72
2022/05/31 03:47:18;;;;;;;38.03;23.10;;;;;;;-145.76;100.00;65039.31;4941659;28;20038;-73
2022/05/31 03:49:44;;;;;;;32.08;20.95;;;;;;;-145.76;100.00;65039.31;4936885;28;20116;-72
2022/05/31 03:52:09;;;;;;;33.92;22.13;;;;;;;-145.76;100.00;65039.31;4929385;28;20057;-73
2022/05/31 03:54:36;;;;;;;30.90;21.73;;;;;;;-145.76;100.00;65039.31;4927137;28;20041;-72
2022/05/31 03:57:03;;;;;;;43.35;21.92;;;;;;;-145.76;100.00;65039.31;4924911;28;20045;-72
2022/05/31 03:59:29;;;;;;;33.45;23.40;;;;;;;-145.76;100.00;65039.31;4944475;28;20238;-73
2022/05/31 04:01:54;;;;;;;32.53;22.10;;;;;;;-145.76;100.00;65039.31;4923881;28;20053;-73
2022/05/31 04:04:20;;;;;;;32.45;21.60;;;;;;;-145.76;100.00;65039.31;4938030;28;20048;-72
2022/05/31 04:06:46;;;;;;;37.58;23.05;;;;;;;-145.76;100.00;65039.31;4910635;28;20481;-73
2022/05/31 04:09:11;;;;;;;34.05;22.77;;;;;;;-145.76;100.00;65039.31;4942966;28;20670;-72
2022/05/31 04:11:37;;;;;;;33.30;23.00;;;;;;;-145.76;100.00;65039.31;4954528;28;20038;-73
2022/05/31 04:14:02;;;;;;;25.15;19.08;;;;;;;-145.76;100.00;65039.31;4920643;28;21146;-72
2022/05/31 04:16:28;;;;;;;38.50;22.65;;;;;;;-145.76;100.00;65039.31;4946740;28;20323;-72
2022/05/31 04:18:54;;;;;;;35.13;21.92;;;;;;;-145.76;100.00;65039.31;4926926;28;20049;-72
2022/05/31 04:21:20;;;;;;;29.48;20.77;;;;;;;-145.76;100.00;65039.31;4954610;28;20038;-72
2022/05/31 04:23:59;;;;;;;41.28;25.52;;;;;;;-145.76;100.00;65039.31;4924617;28;20037;-72
2022/05/31 04:26:26;;;;;;;45.88;24.27;;;;;;;-145.76;100.00;65039.31;4946470;28;20057;-72
2022/05/31 04:28:51;;;;;;;33.83;22.13;;;;;;;-145.76;100.00;65039.31;4940821;28;20096;-72
2022/05/31 04:31:17;;;;;;;37.25;23.33;;;;;;;-145.76;100.00;65039.31;4929944;28;20042;-72
2022/05/31 04:33:42;;;;;;;33.97;24.48;;;;;;;-145.76;100.00;65039.31;4945847;28;20100;-72
2022/05/31 04:36:11;;;;;;;34.63;23.08;;;;;;;-145.76;100.00;65039.31;4930516;28;20045;-72
2022/05/31 04:38:37;;;;;;;37.90;25.50;;;;;;;-145.76;100.00;65039.31;4922500;28;20535;-72
2022/05/31 04:41:03;;;;;;;35.55;24.23;;;;;;;-145.76;100.00;65039.31;4929398;28;20970;-72
2022/05/31 04:43:29;;;;;;;33.63;23.95;;;;;;;-145.76;100.00;65039.31;4942155;28;20045;-71
2022/05/31 04:45:54;;;;;;;31.75;22.92;;;;;;;-145.76;100.00;65039.31;4932451;28;20065;-72
2022/05/31 04:48:20;;;;;;;31.92;23.38;;;;;;;-145.76;100.00;65039.31;4932110;28;20030;-71
2022/05/31 04:50:45;;;;;;;38.70;22.58;;;;;;;-145.76;100.00;65039.31;4937566;28;20041;-72
2022/05/31 04:53:11;;;;;;;35.10;21.65;;;;;;;-145.76;100.00;65039.31;4936680;28;20040;-71
2022/05/31 04:55:37;;;;;;;28.50;21.92;;;;;;;-145.76;100.00;65039.31;4943480;28;20100;-72
2022/05/31 04:58:03;;;;;;;25.02;21.50;;;;;;;-145.76;100.00;65039.31;4924315;28;20447;-72
2022/05/31 05:00:30;;;;;;;28.95;20.10;;;;;;;-145.76;100.00;65039.31;4927073;28;20046;-71
2022/05/31 05:02:55;;;;;;;26.10;18.83;;;;;;;-145.76;100.00;65039.31;4930785;28;21041;-72
2022/05/31 05:05:21;;;;;;;24.38;18.23;;;;;;;-145.76;100.00;65039.31;4939208;28;20045;-70
2022/05/31 05:07:47;;;;;;;24.75;19.02;;;;;;;-145.76;100.00;65039.31;4927621;28;20129;-72
2022/05/31 05:10:12;;;;;;;21.58;18.67;;;;;;;-145.76;100.00;65039.31;4941562;28;20124;-72
2022/05/31 05:12:38;;;;;;;20.23;17.15;;;;;;;-145.76;100.00;65039.31;4939018;28;20032;-72
2022/05/31 05:15:05;;;;;;;22.80;17.08;;;;;;;-145.76;100.00;65039.31;4929165;28;20038;-72
2022/05/31 05:17:31;;;;;;;21.50;18.42;;;;;;;-145.76;100.00;65039.31;4943546;28;20062;-72
2022/05/31 05:19:58;;;;;;;22.73;17.45;;;;;;;-145.76;100.00;65039.31;4927131;28;20050;-71
2022/05/31 05:22:23;;;;;;;24.15;17.38;;;;;;;-145.76;100.00;65039.31;4935555;28;20088;-72
2022/05/31 05:24:49;;;;;;;22.52;16.75;;;;;;;-145.76;100.00;65039.31;4932588;28;20038;-71
2022/05/31 05:27:14;;;;;;;26.40;15.93;;;;;;;-145.76;100.00;65039.31;4943705;28;20046;-72
2022/05/31 05:32:24;;;;;;;20.50;15.57;;;;;;;-145.76;100.00;65039.31;4944823;28;20041;-72
2022/05/31 05:34:52;;;;;;;20.77;16.20;;;;;;;-145.76;100.00;65039.31;4924292;28;20038;-72
2022/05/31 05:37:21;;;;;;;20.00;16.73;;;;;;;-145.76;100.00;65039.31;4934203;28;20037;-71
2022/05/31 05:39:47;;;;;;;19.98;14.68;;;;;;;-145.76;100.00;65039.31;4944693;28;20050;-72
2022/05/31 05:42:13;;;;;;;18.42;14.35;;;;;;;-145.76;100.00;65039.31;4929022;28;20046;-71
2022/05/31 05:44:39;;;;;;;22.38;15.43;;;;;;;-145.76;100.00;65039.31;4946695;28;20120;-71
2022/05/31 05:47:09;;;;;;;18.58;13.30;;;;;;;-145.76;100.00;65039.31;4929844;28;20054;-71
2022/05/31 05:49:35;;;;;;;18.88;13.98;;;;;;;-145.76;100.00;65039.31;4924839;28;20072;-71
2022/05/31 05:52:02;;;;;;;16.48;11.98;;;;;;;-145.76;100.00;65039.31;4927199;28;20057;-71
2022/05/31 05:54:27;;;;;;;14.52;11.93;;;;;;;-145.76;100.00;65039.31;4945094;28;20029;-70
2022/05/31 05:56:53;;;;;;;16.98;12.15;;;;;;;-145.76;100.00;65039.31;4943071;28;20029;-71
2022/05/31 05:59:20;;;;;;;14.35;11.57;;;;;;;-145.76;100.00;65039.31;4931729;28;20068;-71
2022/05/31 06:01:58;;;;;;;17.80;11.05;;;;;;;-145.76;100.00;65039.31;4940327;28;20115;-72
2022/05/31 06:04:28;;;;;;;16.70;11.90;;;;;;;-145.76;100.00;65039.31;4926985;28;20153;-72
2022/05/31 06:07:14;;;;;;;15.43;11.82;;;;;;;-145.76;100.00;65039.31;4942632;28;20038;-70
2022/05/31 06:09:40;;;;;;;15.40;10.90;;;;;;;-145.76;100.00;65039.31;4936976;28;20937;-71
2022/05/31 06:12:11;;;;;;;15.30;10.00;;;;;;;-145.76;100.00;65039.31;4941144;28;20045;-72
2022/05/31 06:14:43;;;;;;;15.85;11.07;;;;;;;-145.76;100.00;65039.31;4926773;28;20216;-71
2022/05/31 06:17:14;;;;;;;13.27;10.57;;;;;;;-145.76;100.00;65039.31;4943006;28;20026;-71
2022/05/31 06:19:40;;;;;;;17.75;9.90;;;;;;;-145.76;100.00;65039.31;4910318;28;20760;-71
2022/05/31 06:22:07;;;;;;;13.00;9.85;;;;;;;-145.76;100.00;65039.31;4939971;28;20121;-71
2022/05/31 06:24:34;;;;;;;14.27;9.23;;;;;;;-145.76;100.00;65039.31;4938895;28;20192;-70
2022/05/31 06:27:00;;;;;;;14.02;10.40;;;;;;;-145.76;100.00;65039.31;4926649;28;20045;-71
2022/05/31 06:29:27;;;;;;;17.15;9.70;;;;;;;-145.76;100.00;65039.31;4944347;28;20042;-71
2022/05/31 06:31:53;;;;;;;12.88;8.68;;;;;;;-145.76;100.00;65039.31;4925889;28;20045;-70
2022/05/31 06:34:19;;;;;;;11.50;8.63;;;;;;;-145.76;100.00;65039.31;4943914;28;20031;-70
2022/05/31 06:36:45;;;;;;;12.60;8.75;;;;;;;-145.76;100.00;65039.31;4930948;28;20043;-71
2022/05/31 06:39:10;;;;;;;12.95;9.70;;;;;;;-145.76;100.00;65039.31;4944748;28;20093;-71
2022/05/31 06:41:36;;;;;;;11.65;8.50;;;;;;;-145.76;100.00;65039.31;4902730;28;20034;-71
2022/05/31 06:44:02;;;;;;;10.60;8.95;;;;;;;-145.76;100.00;65039.31;4944615;28;20079;-71
2022/05/31 06:46:28;;;;;;;9.75;8.20;;;;;;;-145.76;100.00;65039.31;4954679;28;20030;-72
2022/05/31 06:48:53;;;;;;;14.52;7.72;;;;;;;-145.76;100.00;65039.31;4925495;28;20075;-71
2022/05/31 06:56:56;;;;;;;10.80;7.88;;;;;;;-145.76;100.00;65039.31;4939868;28;20143;-71
2022/05/31 06:59:21;;;;;;;13.05;7.90;;;;;;;-145.76;100.00;65039.31;4938902;28;20645;-70
2022/05/31 07:01:48;;;;;;;9.93;7.13;;;;;;;-145.76;100.00;65039.31;4937710;28;20850;-70
2022/05/31 07:04:14;;;;;;;8.50;7.05;;;;;;;-145.76;100.00;65039.31;4922858;28;20053;-70
2022/05/31 07:06:40;;;;;;;10.27;7.80;;;;;;;-145.76;100.00;65039.31;4952013;28;20034;-70
2022/05/31 07:09:05;;;;;;;11.70;7.45;;;;;;;-145.76;100.00;65039.31;4937011;28;20065;-70
2022/05/31 07:11:31;;;;;;;13.68;7.55;;;;;;;-145.76;100.00;65039.31;4930858;28;20205;-71
2022/05/31 07:13:56;;;;;;;12.50;6.95;;;;;;;-145.76;100.00;65039.31;4945913;28;20402;-71
2022/05/31 07:16:22;;;;;;;9.88;6.68;;;;;;;-145.76;100.00;65039.31;4909177;28;20046;-70
2022/05/31 07:18:48;;;;;;;9.15;6.63;;;;;;;-145.76;100.00;65039.31;4946091;28;20141;-70
2022/05/31 07:21:14;;;;;;;12.32;7.07;;;;;;;-145.76;100.00;65039.31;4920222;28;20046;-70
2022/05/31 07:23:41;;;;;;;10.70;6.53;;;;;;;-145.76;100.00;65039.31;4936784;28;20053;-70
2022/05/31 07:26:07;;;;;;;13.10;6.50;;;;;;;-145.76;100.00;65039.31;4923330;28;21812;-71
2022/05/31 07:28:33;;;;;;;11.77;5.97;;;;;;;-145.76;100.00;65039.31;4939709;28;20050;-72
2022/05/31 07:30:58;;;;;;;10.45;5.88;;;;;;;-145.76;100.00;65039.31;4939065;28;20034;-71
2022/05/31 07:33:23;;;;;;;10.40;6.25;;;;;;;-145.76;100.00;65039.31;4920341;28;20191;-71
2022/05/31 07:35:49;;;;;;;7.82;5.30;;;;;;;-145.76;100.00;65039.31;4942137;28;20401;-72
2022/05/31 07:38:20;;;;;;;12.55;6.22;;;;;;;-145.76;100.00;65039.31;4941708;28;20482;-71
2022/05/31 07:40:45;;;;;;;10.48;5.90;;;;;;;-145.76;100.00;65039.31;4957977;28;20057;-72
2022/05/31 07:43:11;;;;;;;10.57;5.68;;;;;;;-145.76;100.00;65039.31;4926947;28;20050;-71
2022/05/31 07:45:37;;;;;;;8.10;4.95;;;;;;;-145.76;100.00;65039.31;4943507;28;20049;-71
2022/05/31 07:48:03;;;;;;;7.72;5.43;;;;;;;-145.76;100.00;65039.31;4916254;28;20046;-71
2022/05/31 07:50:29;;;;;;;8.40;5.38;;;;;;;-145.76;100.00;65039.31;4937465;28;20709;-71
2022/05/31 07:52:55;;;;;;;9.57;4.68;;;;;;;-145.76;100.00;65039.31;4944620;28;20033;-71
2022/05/31 07:55:20;;;;;;;8.00;4.03;;;;;;;-145.76;100.00;65039.31;4925274;28;20049;-71
2022/05/31 08:00:31;;;;;;;6.22;3.40;;;;;;;-145.76;100.00;65039.31;4927268;28;20046;-71
2022/05/31 08:02:56;;;;;;;6.22;3.30;;;;;;;-145.76;100.00;65039.31;4959608;28;21221;-71
2022/05/31 08:05:22;;;;;;;8.98;3.65;;;;;;;-145.76;100.00;65039.31;4929315;28;20084;-71
2022/05/31 08:07:49;;;;;;;5.60;3.70;;;;;;;-145.76;100.00;65039.31;4943557;28;20037;-71
2022/05/31 08:10:17;;;;;;;6.47;3.35;;;;;;;-145.76;100.00;65039.31;4928145;28;20047;-71
2022/05/31 08:12:42;;;;;;;5.60;3.03;;;;;;;-145.76;100.00;65039.31;4945342;28;20037;-71
2022/05/31 08:15:08;;;;;;;6.10;3.28;;;;;;;-145.76;100.00;65039.31;4946123;28;20693;-71
2022/05/31 08:17:33;;;;;;;6.75;3.08;;;;;;;-145.76;100.00;65039.31;4929908;28;20070;-71
2022/05/31 08:19:59;;;;;;;6.95;3.15;;;;;;;-145.76;100.00;65039.31;4947118;28;20080;-71
2022/05/31 08:22:24;;;;;;;9.88;3.50;;;;;;;-145.76;100.00;65039.31;4926836;28;20068;-72
2022/05/31 08:24:50;;;;;;;6.50;2.70;;;;;;;-145.76;100.00;65039.31;4942977;28;20064;-71
2022/05/31 08:27:15;;;;;;;5.85;2.80;;;;;;;-145.76;100.00;65039.31;4930104;28;20806;-72
2022/05/31 08:29:41;;;;;;;4.95;3.05;;;;;;;-145.76;100.00;65039.31;4945899;28;20048;-71
2022/05/31 08:32:07;;;;;;;7.15;2.78;;;;;;;-145.76;100.00;65039.31;4929760;28;22610;-72
2022/05/31 08:34:33;;;;;;;7.13;2.65;;;;;;;-145.76;100.00;65039.31;4942679;28;20053;-70
2022/05/31 08:36:58;;;;;;;5.78;3.10;;;;;;;-145.76;100.00;65039.31;4946058;28;20566;-71
2022/05/31 08:39:24;;;;;;;8.23;2.85;;;;;;;-145.76;100.00;65039.31;4925361;28;20046;-70
2022/05/31 08:41:52;;;;;;;7.30;2.95;;;;;;;-145.76;100.00;65039.31;4946344;28;20124;-70
2022/05/31 08:44:40;;;;;;;8.30;3.13;;;;;;;-145.76;100.00;65039.31;4933808;28;20042;-71
2022/05/31 08:47:18;;;;;;;8.15;2.45;;;;;;;-145.76;100.00;65039.31;4941782;28;20044;-71
2022/05/31 08:53:04;;;;;;;6.80;3.20;;;;;;;-145.76;100.00;65039.31;4936813;28;20038;-71
2022/05/31 08:58:27;;;;;;;5.30;2.88;;;;;;;-145.76;100.00;65039.31;4943329;28;20060;-72
2022/05/31 09:00:54;;;;;;;6.88;3.10;;;;;;;-145.76;100.00;65039.31;4926132;28;20049;-72
2022/05/31 09:03:26;;;;;;;3.72;2.40;;;;;;;-145.76;100.00;65039.31;4953126;28;23895;-72
2022/05/31 09:06:03;;;;;;;4.90;2.85;;;;;;;-145.76;100.00;65039.31;4927235;28;20169;-72
2022/05/31 09:08:47;;;;;;;5.47;2.90;;;;;;;-145.76;100.00;65039.31;4928730;28;20034;-72
2022/05/31 09:11:25;;;;;;;6.63;2.05;;;;;;;-145.76;100.00;65039.31;4929911;28;20045;-72
2022/05/31 09:13:51;;;;;;;5.78;2.40;;;;;;;-145.76;100.00;65039.31;4946113;28;20038;-72
2022/05/31 09:16:33;;;;;;;6.85;1.98;;;;;;;-145.76;100.00;65039.31;4930737;28;20037;-72
2022/05/31 09:19:01;;;;;;;6.55;2.28;;;;;;;-145.76;100.00;65039.31;4940362;28;20045;-72
2022/05/31 09:21:37;;;;;;;5.93;2.97;;;;;;;-145.76;100.00;65039.31;4942564;28;20061;-72
2022/05/31 09:24:04;;;;;;;5.35;2.67;;;;;;;-145.76;100.00;65039.31;4931383;28;20080;-72
2022/05/31 09:26:54;;;;;;;7.30;2.38;;;;;;;-145.76;100.00;65039.31;4943496;28;20194;-73
2022/05/31 09:29:45;;;;;;;6.57;2.35;;;;;;;-145.76;100.00;65039.31;4929915;28;20077;-72
2022/05/31 09:32:21;;;;;;;5.28;2.70;;;;;;;-145.76;100.00;65039.31;4944166;28;20046;-72
2022/05/31 09:34:50;;;;;;;5.80;2.72;;;;;;;-145.76;100.00;65039.31;4929209;28;20045;-73
2022/05/31 09:37:24;;;;;;;5.68;2.72;;;;;;;-145.76;100.00;65039.31;4942174;28;20034;-73
2022/05/31 09:40:01;;;;;;;8.73;3.38;;;;;;;-145.76;100.00;65039.31;4926385;28;20042;-73
2022/05/31 09:42:34;;;;;;;6.15;3.65;;;;;;;-145.76;100.00;65039.31;4944639;28;20119;-73
2022/05/31 09:45:07;;;;;;;6.22;2.88;;;;;;;-145.76;100.00;65039.31;4907787;28;20057;-73
2022/05/31 09:47:33;;;;;;;5.38;3.35;;;;;;;-145.76;100.00;65039.31;4941459;28;20356;-73
2022/05/31 09:49:59;;;;;;;7.13;3.47;;;;;;;-145.76;100.00;65039.31;4925011;28;20714;-73
2022/05/31 09:52:38;;;;;;;6.72;3.45;;;;;;;-145.76;100.00;65039.31;4944828;28;20052;-73
2022/05/31 09:58:21;;;;;;;5.88;3.45;;;;;;;-145.76;100.00;65039.31;4944793;28;20034;-70
2022/05/31 10:01:06;;;;;;;;;;;;;;;-145.76;100.00;65039.31;4929123;28;20501;-73
2022/05/31 10:03:41;;;;;;;6.28;3.22;;;;;;;-145.76;100.00;65039.31;4940094;28;19928;-73
2022/05/31 10:06:14;;;;;;;7.75;3.90;;;;;;;-145.76;100.00;65039.31;4930120;28;20042;-73
2022/05/31 10:08:40;;;;;;;4.32;2.50;;;;;;;-145.76;100.00;65039.31;4946361;28;20145;-72
2022/05/31 10:11:14;;;;;;;4.75;2.60;;;;;;;-145.76;100.00;65039.31;4939948;28;20023;-72
2022/05/31 10:13:53;;;;;;;6.68;2.67;;;;;;;-145.76;100.00;65039.31;4929628;28;20505;-72
2022/05/31 10:16:24;;;;;;;6.60;2.50;;;;;;;-145.76;100.00;65039.31;4943420;28;23613;-73
2022/05/31 10:18:55;;;;;;;7.28;2.63;;;;;;;-145.76;100.00;65039.31;4930091;28;20038;-73
2022/05/31 10:21:33;;;;;;;8.75;2.88;;;;;;;-145.76;100.00;65039.31;4957521;28;20036;-73
2022/05/31 10:24:15;;;;;;;6.40;2.20;;;;;;;-145.76;100.00;65039.31;4927906;28;20053;-73
2022/05/31 10:26:42;;;;;;;10.05;3.08;;;;;;;-145.76;100.00;65039.31;4944323;28;20509;-73
2022/05/31 10:29:40;;;;;;;8.23;3.08;;;;;;;-145.76;100.00;65039.31;4922762;28;20525;-73
2022/05/31 10:32:24;;;;;;;7.90;2.75;;;;;;;-145.76;100.00;65039.31;4926299;28;20392;-73
2022/05/31 10:35:05;;;;;;;6.80;2.92;;;;;;;-145.76;100.00;65039.31;4926296;28;20057;-73
2022/05/31 10:37:32;;;;;;;6.07;3.30;;;;;;;-145.76;100.00;65039.31;4943381;28;20037;-72
2022/05/31 10:40:08;;;;;;;7.97;3.20;;;;;;;-145.76;100.00;65039.31;4941906;28;20050;-72
2022/05/31 10:42:35;;;;;;;6.72;3.08;;;;;;;-145.76;100.00;65039.31;4936273;28;20092;-74
2022/05/31 10:45:04;;;;;;;7.68;3.63;;;;;;;-145.76;100.00;65039.31;4916200;28;20054;-73
2022/05/31 10:47:29;;;;;;;7.07;3.40;;;;;;;-145.76;100.00;65039.31;4947403;28;20432;-72
2022/05/31 10:49:55;;;;;;;5.70;2.92;;;;;;;-145.76;100.00;65039.31;4937039;28;20058;-72
2022/05/31 10:52:20;;;;;;;6.53;2.85;;;;;;;-145.76;100.00;65039.31;4920537;28;20084;-72
2022/05/31 10:55:10;;;;;;;6.05;3.10;;;;;;;-145.76;100.00;65039.31;4939389;28;20044;-73
2022/05/31 10:57:44;;;;;;;8.27;3.10;;;;;;;-145.76;100.00;65039.31;4924712;28;20061;-72
2022/05/31 11:00:33;;;;;;;6.20;2.80;;;;;;;-145.76;100.00;65039.31;4938017;28;20053;-72
2022/05/31 11:03:21;;;;;;;7.25;3.20;;;;;;;-145.76;100.00;65039.31;4918763;28;20046;-73
2022/05/31 11:06:14;;;;;;;7.35;3.17;;;;;;;-145.76;100.00;65039.31;4935675;28;20048;-72
2022/05/31 11:11:51;;;;;;;6.25;2.90;;;;;;;-145.76;100.00;65039.31;4937661;28;20038;-72
2022/05/31 11:14:18;;;;;;;7.88;2.90;;;;;;;-145.76;100.00;65039.31;4905588;28;20161;-72
2022/05/31 11:16:46;;;;;;;6.43;3.05;;;;;;;-145.76;100.00;65039.31;4937087;28;20120;-74
2022/05/31 11:19:39;;;;;;;7.05;2.78;;;;;;;-145.76;100.00;65039.31;4923778;28;20050;-72
2022/05/31 11:22:13;;;;;;;10.13;2.53;;;;;;;-145.76;100.00;65039.31;4936189;28;20128;-72
2022/05/31 11:24:48;;;;;;;5.50;2.97;;;;;;;-145.76;100.00;65039.31;4921763;28;21321;-73
2022/05/31 11:27:55;;;;;;;7.38;3.00;;;;;;;-145.76;100.00;65039.31;4939833;28;20591;-73
2022/05/31 11:30:50;;;;;;;5.25;3.70;;;;;;;-145.76;100.00;65039.31;4905990;28;20077;-72
2022/05/31 11:33:32;;;;;;;6.25;3.03;;;;;;;-145.76;100.00;65039.31;4943643;28;20042;-72
2022/05/31 11:36:18;;;;;;;5.72;3.78;;;;;;;-145.76;100.00;65039.31;4929428;28;20072;-73
2022/05/31 11:38:58;;;;;;;7.20;3.30;;;;;;;-145.76;100.00;65039.31;4948561;28;20041;-73